createdAt,value
2023-03-07T00:01:27.607Z,1.11
2023-03-07T00:03:31.861Z,1.12
2023-03-07T00:05:33.642Z,1.11
2023-03-07T00:07:36.548Z,1.11
2023-03-07T00:09:38.464Z,1.11
2023-03-07T00:11:40.317Z,1.10
2023-03-07T00:13:42.006Z,1.10
2023-03-07T00:15:43.716Z,1.10
2023-03-07T00:17:45.785Z,1.09
2023-03-07T00:19:47.364Z,1.09
2023-03-07T00:21:49.451Z,1.09
2023-03-07T00:23:53.332Z,1.08
2023-03-07T00:26:00.312Z,1.09
2023-03-07T00:28:02.181Z,1.09
2023-03-07T00:30:05.970Z,1.08
2023-03-07T00:32:08.349Z,1.09
2023-03-07T00:34:09.995Z,1.09
2023-03-07T00:36:14.227Z,1.09
2023-03-07T00:38:15.824Z,1.09
2023-03-07T00:40:19.160Z,1.09
2023-03-07T00:42:20.959Z,1.06
2023-03-07T00:44:22.852Z,1.07
2023-03-07T00:46:26.151Z,1.08
2023-03-07T00:48:28.836Z,1.08
2023-03-07T00:50:30.633Z,1.07
2023-03-07T00:52:34.183Z,1.08
2023-03-07T00:54:35.770Z,1.07
2023-03-07T00:56:39.089Z,1.08
2023-03-07T00:58:41.126Z,1.07
2023-03-07T01:00:42.932Z,1.07
2023-03-07T01:02:44.579Z,1.07
2023-03-07T01:04:46.225Z,1.08
2023-03-07T01:06:48.029Z,1.09
2023-03-07T01:08:49.642Z,1.08
2023-03-07T01:10:51.452Z,1.07
2023-03-07T01:12:54.830Z,1.08
2023-03-07T01:14:56.682Z,1.08
2023-03-07T01:16:58.964Z,1.08
2023-03-07T01:19:06.122Z,1.08
2023-03-07T01:21:13.238Z,1.08
2023-03-07T01:23:14.858Z,1.08
2023-03-07T01:25:16.844Z,1.08
2023-03-07T01:27:18.474Z,1.08
2023-03-07T01:29:21.435Z,1.06
2023-03-07T01:31:24.281Z,1.07
2023-03-07T01:33:26.264Z,1.06
2023-03-07T01:35:28.656Z,1.06
2023-03-07T01:37:30.210Z,1.06
2023-03-07T01:39:31.778Z,1.05
2023-03-07T01:41:34.327Z,1.06
2023-03-07T01:43:37.874Z,1.06
2023-03-07T01:46:22.029Z,1.09
2023-03-07T01:48:25.428Z,1.06
2023-03-07T01:50:28.103Z,1.07
2023-03-07T01:52:33.132Z,1.07
2023-03-07T01:54:39.703Z,1.07
2023-03-07T01:56:42.986Z,1.06
2023-03-07T01:58:46.521Z,1.07
2023-03-07T02:00:48.846Z,1.07
2023-03-07T02:02:57.579Z,1.07
2023-03-07T02:05:06.208Z,1.07
2023-03-07T02:07:09.467Z,1.07
2023-03-07T02:09:15.454Z,1.08
2023-03-07T02:11:17.905Z,1.09
2023-03-07T02:13:19.798Z,1.09
2023-03-07T02:15:21.803Z,1.08
2023-03-07T02:17:24.975Z,1.07
2023-03-07T02:19:37.463Z,1.07
2023-03-07T02:21:46.666Z,1.07
2023-03-07T02:23:56.151Z,1.08
2023-03-07T02:26:06.064Z,1.06
2023-03-07T02:28:11.946Z,1.06
2023-03-07T02:30:13.713Z,1.04
2023-03-07T02:32:15.399Z,1.05
2023-03-07T02:34:22.540Z,1.03
2023-03-07T02:36:29.729Z,1.04
2023-03-07T02:38:33.511Z,1.03
2023-03-07T02:40:35.471Z,1.03
2023-03-07T02:42:40.808Z,1.03
2023-03-07T02:44:46.770Z,1.03
2023-03-07T02:46:48.411Z,1.02
2023-03-07T02:48:50.181Z,1.02
2023-03-07T02:50:51.810Z,1.03
2023-03-07T02:52:53.397Z,1.04
2023-03-07T02:54:55.570Z,1.04
2023-03-07T02:56:57.510Z,1.05
2023-03-07T02:58:59.405Z,1.05
2023-03-07T03:01:02.584Z,1.06
2023-03-07T03:03:04.651Z,1.06
2023-03-07T03:05:08.092Z,1.07
2023-03-07T03:07:09.969Z,1.08
2023-03-07T03:09:12.016Z,1.08
2023-03-07T03:11:13.886Z,1.08
2023-03-07T03:13:15.821Z,1.09
2023-03-07T03:15:17.944Z,1.09
2023-03-07T03:17:21.913Z,1.10
2023-03-07T03:19:23.749Z,1.12
2023-03-07T03:21:25.603Z,1.11
2023-03-07T03:23:28.122Z,1.12
2023-03-07T03:25:29.937Z,1.12
2023-03-07T03:27:32.261Z,1.13
2023-03-07T03:29:34.382Z,1.15
2023-03-07T03:31:35.997Z,1.17
2023-03-07T03:33:39.100Z,1.17
2023-03-07T03:35:40.675Z,1.19
2023-03-07T03:37:44.527Z,1.20
2023-03-07T03:39:46.206Z,1.21
2023-03-07T03:41:47.854Z,1.22
2023-03-07T03:43:49.716Z,1.23
2023-03-07T03:45:54.850Z,1.24
2023-03-07T03:47:59.102Z,1.28
2023-03-07T03:50:02.252Z,1.28
2023-03-07T03:52:04.805Z,1.26
2023-03-07T03:54:06.874Z,1.29
2023-03-07T03:56:10.944Z,1.31
2023-03-07T03:58:12.873Z,1.32
2023-03-07T04:00:14.932Z,1.33
2023-03-07T04:02:16.876Z,1.33
2023-03-07T04:04:18.779Z,1.35
2023-03-07T04:06:24.200Z,1.37
2023-03-07T04:08:26.018Z,1.38
2023-03-07T04:10:27.887Z,1.39
2023-03-07T04:12:29.488Z,1.39
2023-03-07T04:14:31.583Z,1.40
2023-03-07T04:16:33.644Z,1.40
2023-03-07T04:18:36.095Z,1.41
2023-03-07T04:20:37.636Z,1.41
2023-03-07T04:22:40.936Z,1.40
2023-03-07T04:24:42.671Z,1.39
2023-03-07T04:26:44.308Z,1.38
2023-03-07T04:28:46.177Z,1.38
2023-03-07T04:30:48.005Z,1.38
2023-03-07T04:32:49.920Z,1.36
2023-03-07T04:34:51.778Z,1.32
2023-03-07T04:37:03.079Z,1.32
2023-03-07T04:39:07.259Z,1.31
2023-03-07T04:41:12.908Z,1.30
2023-03-07T04:43:16.804Z,1.29
2023-03-07T04:45:18.868Z,1.27
2023-03-07T04:47:20.412Z,1.26
2023-03-07T04:49:23.838Z,1.25
2023-03-07T04:51:27.655Z,1.23
2023-03-07T04:53:29.171Z,1.22
2023-03-07T04:55:32.194Z,1.21
2023-03-07T04:57:34.107Z,1.22
2023-03-07T04:59:35.946Z,1.19
2023-03-07T05:01:37.814Z,1.17
2023-03-07T05:03:39.731Z,1.17
2023-03-07T05:05:41.472Z,1.16
2023-03-07T05:07:44.157Z,1.15
2023-03-07T05:09:47.740Z,1.14
2023-03-07T05:11:53.251Z,1.14
2023-03-07T05:13:55.308Z,1.13
2023-03-07T05:15:58.718Z,1.12
2023-03-07T05:18:00.543Z,1.12
2023-03-07T05:20:02.310Z,1.10
2023-03-07T05:22:04.144Z,1.11
2023-03-07T05:24:06.416Z,1.10
2023-03-07T05:26:08.043Z,1.07
2023-03-07T05:28:11.268Z,1.07
2023-03-07T05:30:13.544Z,1.08
2023-03-07T05:32:15.445Z,1.08
2023-03-07T05:34:17.655Z,1.07
2023-03-07T05:36:19.248Z,1.09
2023-03-07T05:38:20.840Z,1.09
2023-03-07T05:40:22.475Z,1.09
2023-03-07T05:42:24.464Z,1.10
2023-03-07T05:44:27.636Z,1.11
2023-03-07T05:46:29.668Z,1.12
2023-03-07T05:48:31.430Z,1.12
2023-03-07T05:50:33.002Z,1.14
2023-03-07T05:52:34.991Z,1.15
2023-03-07T05:54:37.191Z,1.17
2023-03-07T05:56:39.301Z,1.17
2023-03-07T05:58:41.040Z,1.18
2023-03-07T06:00:44.025Z,1.21
2023-03-07T06:02:45.709Z,1.22
2023-03-07T06:04:47.559Z,1.24
2023-03-07T06:06:49.465Z,1.27
2023-03-07T06:08:51.442Z,1.28
2023-03-07T06:10:55.009Z,1.30
2023-03-07T06:12:56.827Z,1.31
2023-03-07T06:14:58.452Z,1.34
2023-03-07T06:17:01.497Z,1.36
2023-03-07T06:19:02.995Z,1.39
2023-03-07T06:21:07.288Z,1.41
2023-03-07T06:23:09.376Z,1.43
2023-03-07T06:25:10.932Z,1.46
2023-03-07T06:27:12.583Z,1.48
2023-03-07T06:29:14.467Z,1.50
2023-03-07T06:31:18.214Z,1.53
2023-03-07T06:33:21.406Z,1.55
2023-03-07T06:35:23.018Z,1.56
2023-03-07T06:37:24.890Z,1.59
2023-03-07T06:39:26.382Z,1.61
2023-03-07T06:41:28.014Z,1.62
2023-03-07T06:43:59.225Z,1.66
2023-03-07T06:46:01.192Z,1.68
2023-03-07T06:48:03.552Z,1.71
2023-03-07T06:50:09.618Z,1.73
2023-03-07T06:52:11.294Z,1.74
2023-03-07T06:54:13.039Z,1.77
2023-03-07T06:56:14.851Z,1.81
2023-03-07T06:58:16.809Z,1.83
2023-03-07T07:00:19.800Z,1.87
2023-03-07T07:02:21.441Z,1.90
2023-03-07T07:04:23.139Z,1.96
2023-03-07T07:06:26.631Z,2.07
2023-03-07T07:08:28.627Z,2.12
2023-03-07T07:10:30.443Z,2.14
2023-03-07T07:14:34.022Z,2.24
2023-03-07T07:16:35.958Z,2.31
2023-03-07T07:18:37.816Z,2.39
2023-03-07T07:20:39.430Z,2.49
2023-03-07T07:22:42.935Z,2.64
2023-03-07T07:24:44.576Z,2.74
2023-03-07T07:26:46.415Z,2.83
2023-03-07T07:28:48.020Z,2.96
2023-03-07T07:30:49.834Z,3.08
2023-03-07T07:32:51.760Z,3.13
2023-03-07T07:34:53.703Z,3.19
2023-03-07T07:36:55.670Z,3.24
2023-03-07T07:38:58.730Z,3.24
2023-03-07T07:41:00.658Z,3.26
2023-03-07T07:43:02.512Z,3.29
2023-03-07T07:45:04.819Z,3.30
2023-03-07T07:47:07.140Z,3.31
2023-03-07T07:49:09.497Z,3.37
2023-03-07T07:51:11.300Z,3.45
2023-03-07T07:53:13.782Z,3.44
2023-03-07T07:55:17.177Z,3.49
2023-03-07T07:57:19.668Z,3.55
2023-03-07T07:59:22.180Z,3.61
2023-03-07T08:01:25.607Z,3.68
2023-03-07T08:03:27.282Z,3.79
2023-03-07T08:05:28.973Z,3.90
2023-03-07T08:07:30.566Z,4.01
2023-03-07T08:09:32.070Z,4.01
2023-03-07T08:11:35.484Z,4.02
2023-03-07T08:13:37.345Z,4.01
2023-03-07T08:15:39.478Z,3.99
2023-03-07T08:17:41.068Z,3.97
2023-03-07T08:19:42.685Z,3.95
2023-03-07T08:21:44.216Z,3.90
2023-03-07T08:23:45.869Z,3.87
2023-03-07T08:25:47.432Z,3.86
2023-03-07T08:27:51.228Z,3.83
2023-03-07T08:29:53.582Z,3.82
2023-03-07T08:31:55.360Z,3.84
2023-03-07T08:33:57.194Z,3.84
2023-03-07T08:35:59.444Z,3.84
2023-03-07T08:38:01.830Z,3.86
2023-03-07T08:40:03.943Z,3.87
2023-03-07T08:42:06.214Z,3.90
2023-03-07T08:44:09.517Z,3.90
2023-03-07T08:46:11.280Z,3.90
2023-03-07T08:48:13.106Z,3.87
2023-03-07T08:50:14.699Z,3.92
2023-03-07T08:52:16.245Z,3.96
2023-03-07T08:54:18.135Z,3.99
2023-03-07T08:56:20.102Z,4.01
2023-03-07T08:58:21.920Z,4.04
2023-03-07T09:00:25.715Z,4.02
2023-03-07T09:02:27.277Z,4.04
2023-03-07T09:04:28.841Z,4.04
2023-03-07T09:06:31.085Z,4.04
2023-03-07T09:08:32.945Z,4.03
2023-03-07T09:10:35.395Z,4.02
2023-03-07T09:12:36.986Z,4.01
2023-03-07T09:14:38.876Z,4.02
2023-03-07T09:16:42.201Z,4.03
2023-03-07T09:18:43.854Z,4.06
2023-03-07T09:20:45.426Z,4.06
2023-03-07T09:22:47.094Z,4.08
2023-03-07T09:24:48.912Z,4.08
2023-03-07T09:26:50.526Z,4.10
2023-03-07T09:28:52.213Z,4.12
2023-03-07T09:30:54.288Z,4.10
2023-03-07T09:32:57.664Z,4.14
2023-03-07T09:34:59.219Z,4.16
2023-03-07T09:37:01.107Z,4.19
2023-03-07T09:39:03.143Z,4.22
2023-03-07T09:41:21.807Z,4.23
2023-03-07T09:43:27.090Z,4.19
2023-03-07T09:45:45.890Z,4.25
2023-03-07T09:48:17.603Z,4.25
2023-03-07T09:50:26.657Z,4.26
2023-03-07T09:52:33.572Z,4.27
2023-03-07T09:54:41.488Z,4.29
2023-03-07T09:56:46.361Z,4.26
2023-03-07T09:58:54.987Z,4.27
2023-03-07T10:01:00.013Z,4.27
2023-03-07T10:03:14.194Z,4.28
2023-03-07T10:05:27.700Z,4.27
2023-03-07T10:07:29.328Z,4.25
2023-03-07T10:09:31.071Z,4.25
2023-03-07T10:11:58.026Z,4.26
2023-03-07T10:14:18.613Z,4.25
2023-03-07T10:16:28.986Z,4.24
2023-03-07T10:18:54.392Z,4.25
2023-03-07T10:21:07.905Z,4.23
2023-03-07T10:23:26.106Z,4.25
2023-03-07T10:25:29.729Z,4.25
2023-03-07T10:27:32.259Z,4.26
2023-03-07T10:29:40.951Z,4.27
2023-03-07T10:31:48.102Z,4.27
2023-03-07T10:33:51.123Z,4.29
2023-03-07T10:35:59.488Z,4.32
2023-03-07T10:38:13.953Z,4.37
2023-03-07T10:40:21.758Z,4.40
2023-03-07T10:42:25.765Z,4.48
2023-03-07T10:44:31.782Z,4.51
2023-03-07T10:46:33.602Z,4.61
2023-03-07T10:48:38.487Z,4.71
2023-03-07T10:50:46.409Z,4.83
2023-03-07T10:52:51.717Z,4.91
2023-03-07T10:54:54.715Z,5.02
2023-03-07T10:57:05.076Z,5.07
2023-03-07T10:59:08.859Z,5.11
2023-03-07T11:01:17.858Z,5.17
2023-03-07T11:03:27.176Z,5.18
2023-03-07T11:05:31.991Z,5.23
2023-03-07T11:07:35.347Z,5.23
2023-03-07T11:09:47.884Z,5.25
2023-03-07T11:11:53.941Z,5.25
2023-03-07T11:14:07.334Z,5.27
2023-03-07T11:16:15.993Z,5.27
2023-03-07T11:18:29.558Z,5.31
2023-03-07T11:20:48.521Z,5.31
2023-03-07T11:22:50.777Z,5.26
2023-03-07T11:24:56.692Z,5.26
2023-03-07T11:27:00.904Z,5.28
2023-03-07T11:29:10.579Z,5.28
2023-03-07T11:31:23.192Z,5.27
2023-03-07T11:33:39.284Z,5.25
2023-03-07T11:35:56.675Z,5.25
2023-03-07T11:38:07.352Z,5.23
2023-03-07T11:40:22.146Z,5.25
2023-03-07T11:42:33.004Z,5.36
2023-03-07T11:44:43.166Z,5.32
2023-03-07T11:47:17.473Z,5.38
2023-03-07T11:49:34.732Z,5.34
2023-03-07T11:51:47.190Z,5.42
2023-03-07T11:54:01.436Z,5.55
2023-03-07T11:56:21.484Z,5.67
2023-03-07T11:58:49.575Z,5.82
2023-03-07T12:01:07.024Z,5.96
2023-03-07T12:03:39.537Z,6.12
2023-03-07T12:05:58.083Z,6.25
2023-03-07T12:08:16.671Z,6.43
2023-03-07T12:10:31.431Z,6.56
2023-03-07T12:12:47.892Z,6.71
2023-03-07T12:15:02.964Z,6.82
2023-03-07T12:17:20.210Z,6.94
2023-03-07T12:19:54.648Z,7.08
2023-03-07T12:22:12.881Z,7.18
2023-03-07T12:24:21.396Z,7.31
2023-03-07T12:26:28.672Z,7.19
2023-03-07T12:28:39.599Z,7.19
2023-03-07T12:30:54.803Z,7.10
2023-03-07T12:32:57.075Z,6.98
2023-03-07T12:35:03.739Z,6.94
2023-03-07T12:37:09.943Z,6.84
2023-03-07T12:39:20.279Z,6.70
2023-03-07T12:41:36.159Z,6.65
2023-03-07T12:43:44.748Z,6.52
2023-03-07T12:45:56.417Z,6.40
2023-03-07T12:48:07.596Z,6.30
2023-03-07T12:50:15.306Z,6.35
2023-03-07T12:52:30.672Z,6.36
2023-03-07T12:54:38.266Z,6.34
2023-03-07T12:56:50.278Z,6.39
2023-03-07T12:58:56.737Z,6.47
2023-03-07T13:01:04.021Z,6.49
2023-03-07T13:03:06.406Z,6.63
2023-03-07T13:05:18.928Z,6.74
2023-03-07T13:07:25.687Z,6.79
2023-03-07T13:09:28.448Z,6.70
2023-03-07T13:11:32.428Z,6.70
2023-03-07T13:13:54.587Z,6.69
2023-03-07T13:16:07.689Z,6.63
2023-03-07T13:18:26.855Z,6.59
2023-03-07T13:20:40.813Z,6.54
2023-03-07T13:23:00.735Z,6.53
2023-03-07T13:25:36.230Z,6.65
2023-03-07T13:27:45.537Z,6.56
2023-03-07T13:30:17.603Z,6.51
2023-03-07T13:32:52.857Z,6.56
2023-03-07T13:34:55.973Z,6.49
2023-03-07T13:36:57.539Z,6.48
2023-03-07T13:38:59.322Z,6.45
2023-03-07T13:41:01.926Z,6.44
2023-03-07T13:43:05.650Z,6.43
2023-03-07T13:45:37.043Z,6.40
2023-03-07T13:47:42.445Z,6.37
2023-03-07T13:49:45.463Z,6.29
2023-03-07T13:52:20.409Z,6.23
2023-03-07T13:54:24.129Z,6.25
2023-03-07T13:56:29.743Z,6.26
2023-03-07T13:58:34.976Z,6.28
2023-03-07T14:00:41.526Z,6.16
2023-03-07T14:02:44.027Z,6.13
2023-03-07T14:04:48.637Z,6.11
2023-03-07T14:06:54.918Z,6.02
2023-03-07T14:09:01.635Z,5.96
2023-03-07T14:11:15.412Z,5.87
2023-03-07T14:13:30.669Z,5.77
2023-03-07T14:15:38.466Z,5.73
2023-03-07T14:17:55.236Z,5.65
2023-03-07T14:20:09.019Z,5.57
2023-03-07T14:22:23.729Z,5.56
2023-03-07T14:24:50.376Z,5.62
2023-03-07T14:26:57.914Z,5.67
2023-03-07T14:29:02.021Z,5.72
2023-03-07T14:31:04.759Z,5.72
2023-03-07T14:33:06.766Z,5.75
2023-03-07T14:35:09.011Z,5.80
2023-03-07T14:37:17.208Z,5.83
2023-03-07T14:39:20.970Z,5.87
2023-03-07T14:41:35.710Z,5.94
2023-03-07T14:43:49.521Z,5.98
2023-03-07T14:45:58.243Z,5.99
2023-03-07T14:48:31.405Z,6.04
2023-03-07T14:50:33.644Z,5.98
2023-03-07T14:52:36.100Z,5.87
2023-03-07T14:54:38.375Z,5.82
2023-03-07T14:56:40.482Z,5.77
2023-03-07T14:58:50.957Z,5.69
2023-03-07T15:00:58.689Z,5.62
2023-03-07T15:03:05.385Z,5.59
2023-03-07T15:05:15.233Z,5.54
2023-03-07T15:07:21.862Z,5.49
2023-03-07T15:09:24.773Z,5.43
2023-03-07T15:11:31.776Z,5.39
2023-03-07T15:13:38.085Z,5.33
2023-03-07T15:15:45.144Z,5.26
2023-03-07T15:17:47.273Z,5.17
2023-03-07T15:19:55.824Z,5.02
2023-03-07T15:22:00.643Z,4.87
2023-03-07T15:24:02.965Z,4.75
2023-03-07T15:26:07.167Z,4.72
2023-03-07T15:28:18.302Z,4.68
2023-03-07T15:30:25.534Z,4.63
2023-03-07T15:32:34.912Z,4.53
2023-03-07T15:34:38.889Z,4.55
2023-03-07T15:36:40.728Z,4.54
2023-03-07T15:38:44.323Z,4.55
2023-03-07T15:40:48.092Z,4.49
2023-03-07T15:42:52.244Z,4.51
2023-03-07T15:44:56.370Z,4.51
2023-03-07T15:47:03.620Z,4.52
2023-03-07T15:49:07.160Z,4.49
2023-03-07T15:51:15.046Z,4.49
2023-03-07T15:53:25.076Z,4.49
2023-03-07T15:55:27.576Z,4.47
2023-03-07T15:57:33.801Z,4.45
2023-03-07T15:59:38.345Z,4.39
2023-03-07T16:01:40.001Z,4.38
2023-03-07T16:03:49.443Z,4.38
2023-03-07T16:05:53.779Z,4.34
2023-03-07T16:07:57.332Z,4.29
2023-03-07T16:09:59.261Z,4.29
2023-03-07T16:12:01.142Z,4.27
2023-03-07T16:14:02.873Z,4.26
2023-03-07T16:16:07.355Z,4.27
2023-03-07T16:18:09.321Z,4.24
2023-03-07T16:20:14.435Z,4.22
2023-03-07T16:22:19.926Z,4.17
2023-03-07T16:24:21.495Z,4.16
2023-03-07T16:26:25.182Z,4.17
2023-03-07T16:28:26.851Z,4.13
2023-03-07T16:30:32.094Z,4.10
2023-03-07T16:32:33.799Z,4.10
2023-03-07T16:34:35.437Z,4.06
2023-03-07T16:36:37.364Z,4.01
2023-03-07T16:38:40.973Z,3.97
2023-03-07T16:40:44.301Z,3.93
2023-03-07T16:42:48.034Z,3.88
2023-03-07T16:44:51.719Z,3.87
2023-03-07T16:46:58.557Z,3.84
2023-03-07T16:49:00.196Z,3.80
2023-03-07T16:51:02.297Z,3.79
2023-03-07T16:53:04.102Z,3.77
2023-03-07T16:55:11.422Z,3.75
2023-03-07T16:57:16.050Z,3.71
2023-03-07T16:59:20.169Z,3.68
2023-03-07T17:01:22.078Z,3.65
2023-03-07T17:03:23.654Z,3.64
2023-03-07T17:05:28.338Z,3.58
2023-03-07T17:07:30.240Z,3.56
2023-03-07T17:09:32.061Z,3.54
2023-03-07T17:11:36.478Z,3.51
2023-03-07T17:13:38.369Z,3.49
2023-03-07T17:15:40.281Z,3.44
2023-03-07T17:17:43.053Z,3.46
2023-03-07T17:19:44.881Z,3.40
2023-03-07T17:21:46.528Z,3.38
2023-03-07T17:23:48.688Z,3.34
2023-03-07T17:25:50.455Z,3.36
2023-03-07T17:28:00.372Z,3.34
2023-03-07T17:30:01.954Z,3.30
2023-03-07T17:32:04.449Z,3.29
2023-03-07T17:34:06.084Z,3.24
2023-03-07T17:36:09.717Z,3.21
2023-03-07T17:38:11.297Z,3.20
2023-03-07T17:40:13.567Z,3.18
2023-03-07T17:42:15.239Z,3.16
2023-03-07T17:44:18.570Z,3.12
2023-03-07T17:46:21.128Z,3.13
2023-03-07T17:48:22.731Z,3.12
2023-03-07T17:50:24.909Z,3.11
2023-03-07T17:52:26.547Z,3.08
2023-03-07T17:54:28.396Z,3.07
2023-03-07T17:56:29.998Z,3.06
2023-03-07T17:58:31.606Z,3.03
2023-03-07T18:00:34.656Z,3.02
2023-03-07T18:02:36.490Z,3.00
2023-03-07T18:04:38.391Z,2.97
2023-03-07T18:06:41.020Z,2.97
2023-03-07T18:08:42.717Z,2.94
2023-03-07T18:10:44.267Z,2.91
2023-03-07T18:12:46.282Z,2.91
2023-03-07T18:14:48.438Z,2.88
2023-03-07T18:16:51.999Z,2.87
2023-03-07T18:18:59.382Z,2.86
2023-03-07T18:21:05.571Z,2.82
2023-03-07T18:23:07.616Z,2.82
2023-03-07T18:25:13.519Z,2.79
2023-03-07T18:27:15.456Z,2.78
2023-03-07T18:29:17.084Z,2.77
2023-03-07T18:31:20.845Z,2.75
2023-03-07T18:33:24.235Z,2.74
2023-03-07T18:35:26.061Z,2.74
2023-03-07T18:37:28.173Z,2.72
2023-03-07T18:39:29.838Z,2.69
2023-03-07T18:41:33.187Z,2.69
2023-03-07T18:43:35.204Z,2.67
2023-03-07T18:45:37.019Z,2.65
2023-03-07T18:47:38.864Z,2.63
2023-03-07T18:49:42.321Z,2.64
2023-03-07T18:51:43.949Z,2.64
2023-03-07T18:53:45.584Z,2.63
2023-03-07T18:55:47.241Z,2.62
2023-03-07T18:57:49.322Z,2.59
2023-03-07T18:59:50.841Z,2.59
2023-03-07T19:01:52.784Z,2.58
2023-03-07T19:03:56.105Z,2.55
2023-03-07T19:05:59.668Z,2.55
2023-03-07T19:08:01.790Z,2.53
2023-03-07T19:10:04.024Z,2.52
2023-03-07T19:12:06.125Z,2.50
2023-03-07T19:14:08.014Z,2.48
2023-03-07T19:16:13.081Z,2.45
2023-03-07T19:18:15.230Z,2.43
2023-03-07T19:20:17.483Z,2.41
2023-03-07T19:22:20.477Z,2.37
2023-03-07T19:24:22.049Z,2.34
2023-03-07T19:26:24.207Z,2.36
2023-03-07T19:28:26.252Z,2.31
2023-03-07T19:30:28.298Z,2.27
2023-03-07T19:32:30.003Z,2.27
2023-03-07T19:34:31.861Z,2.25
2023-03-07T19:36:33.971Z,2.22
2023-03-07T19:38:37.293Z,2.20
2023-03-07T19:40:39.203Z,2.18
2023-03-07T19:42:40.755Z,2.17
2023-03-07T19:44:42.919Z,2.14
2023-03-07T19:46:44.687Z,2.16
2023-03-07T19:48:47.828Z,2.14
2023-03-07T19:50:49.611Z,2.12
2023-03-07T19:52:52.096Z,2.11
2023-03-07T19:54:55.273Z,2.10
2023-03-07T19:56:57.184Z,2.09
2023-03-07T19:59:01.676Z,2.08
2023-03-07T20:01:07.612Z,2.09
2023-03-07T20:03:12.538Z,2.06
2023-03-07T20:05:14.346Z,2.04
2023-03-07T20:07:16.397Z,2.07
2023-03-07T20:09:18.291Z,2.05
2023-03-07T20:11:26.413Z,2.04
2023-03-07T20:13:28.708Z,2.04
2023-03-07T20:15:30.580Z,2.03
2023-03-07T20:17:33.205Z,2.02
2023-03-07T20:19:35.204Z,2.01
2023-03-07T20:21:37.218Z,2.00
2023-03-07T20:23:39.269Z,2.00
2023-03-07T20:25:41.057Z,1.96
2023-03-07T20:27:44.272Z,1.96
2023-03-07T20:29:45.970Z,1.96
2023-03-07T20:31:47.826Z,1.94
2023-03-07T20:33:50.911Z,1.98
2023-03-07T20:36:00.297Z,1.97
2023-03-07T20:38:02.237Z,1.96
2023-03-07T20:40:04.896Z,1.95
2023-03-07T20:42:06.651Z,1.96
2023-03-07T20:44:12.974Z,1.94
2023-03-07T20:46:16.325Z,1.95
2023-03-07T20:48:18.192Z,1.94
2023-03-07T20:50:19.885Z,1.95
2023-03-07T20:52:21.464Z,1.96
2023-03-07T20:54:23.008Z,1.96
2023-03-07T20:56:26.662Z,1.97
2023-03-07T20:58:28.759Z,1.97
2023-03-07T21:00:32.164Z,1.95
2023-03-07T21:02:34.105Z,1.94
2023-03-07T21:04:35.874Z,1.92
2023-03-07T21:06:39.600Z,1.92
2023-03-07T21:08:41.626Z,1.92
2023-03-07T21:10:43.271Z,1.91
2023-03-07T21:12:44.878Z,1.90
2023-03-07T21:14:46.692Z,1.90
2023-03-07T21:16:50.037Z,1.89
2023-03-07T21:18:51.929Z,1.88
2023-03-07T21:20:53.526Z,1.88
2023-03-07T21:22:55.179Z,1.87
2023-03-07T21:24:56.968Z,1.85
2023-03-07T21:26:58.803Z,1.84
2023-03-07T21:29:00.486Z,1.83
2023-03-07T21:31:03.964Z,1.81
2023-03-07T21:33:07.095Z,1.80
2023-03-07T21:35:09.636Z,1.79
2023-03-07T21:37:11.219Z,1.79
2023-03-07T21:39:13.140Z,1.76
2023-03-07T21:41:15.856Z,1.75
2023-03-07T21:43:17.473Z,1.70
2023-03-07T21:45:19.146Z,1.70
2023-03-07T21:47:20.784Z,1.71
2023-03-07T21:49:24.166Z,1.68
2023-03-07T21:51:25.712Z,1.65
2023-03-07T21:53:27.519Z,1.64
2023-03-07T21:55:29.315Z,1.64
2023-03-07T21:57:30.863Z,1.61
2023-03-07T21:59:32.689Z,1.59
2023-03-07T22:01:34.389Z,1.57
2023-03-07T22:03:36.022Z,1.57
2023-03-07T22:05:39.473Z,1.54
2023-03-07T22:07:41.152Z,1.55
2023-03-07T22:09:42.871Z,1.53
2023-03-07T22:11:44.400Z,1.50
2023-03-07T22:13:45.930Z,1.49
2023-03-07T22:15:47.668Z,1.46
2023-03-07T22:17:49.300Z,1.45
2023-03-07T22:19:50.874Z,1.43
2023-03-07T22:21:53.894Z,1.41
2023-03-07T22:23:56.754Z,1.36
2023-03-07T22:26:03.103Z,1.37
2023-03-07T22:28:05.311Z,1.34
2023-03-07T22:30:08.066Z,1.34
2023-03-07T22:32:10.480Z,1.33
2023-03-07T22:34:12.085Z,1.33
2023-03-07T22:36:14.592Z,1.30
2023-03-07T22:38:18.034Z,1.29
2023-03-07T22:40:19.872Z,1.28
2023-03-07T22:42:21.522Z,1.26
2023-03-07T22:44:23.207Z,1.25
2023-03-07T22:46:25.144Z,1.25
2023-03-07T22:48:27.404Z,1.23
2023-03-07T22:50:29.000Z,1.24
2023-03-07T22:52:30.762Z,1.22
2023-03-07T22:54:34.053Z,1.20
2023-03-07T22:56:35.922Z,1.21
2023-03-07T22:58:38.419Z,1.21
2023-03-07T23:00:41.704Z,1.20
2023-03-07T23:02:43.285Z,1.18
2023-03-07T23:04:45.300Z,1.19
2023-03-07T23:06:46.997Z,1.18
2023-03-07T23:08:50.671Z,1.18
2023-03-07T23:11:00.109Z,1.19
2023-03-07T23:13:02.067Z,1.16
2023-03-07T23:15:04.224Z,1.14
2023-03-07T23:17:05.983Z,1.14
2023-03-07T23:19:08.756Z,1.12
2023-03-07T23:21:13.386Z,1.11
2023-03-07T23:23:15.233Z,1.12
2023-03-07T23:25:16.927Z,1.11
2023-03-07T23:27:20.070Z,1.11
2023-03-07T23:29:21.742Z,1.10
2023-03-07T23:31:25.806Z,1.08
2023-03-07T23:33:27.955Z,1.09
2023-03-07T23:35:32.065Z,1.06
2023-03-07T23:37:33.754Z,1.03
2023-03-07T23:39:36.993Z,1.06
2023-03-07T23:41:39.995Z,1.05
2023-03-07T23:43:43.176Z,1.03
2023-03-07T23:45:45.024Z,1.03
2023-03-07T23:47:47.129Z,1.02
2023-03-07T23:49:49.037Z,1.01
2023-03-07T23:51:50.885Z,1.00
2023-03-07T23:53:52.903Z,0.98
2023-03-07T23:55:54.453Z,0.96
2023-03-07T23:57:56.515Z,0.96
2023-03-07T23:59:59.607Z,0.94
